sensor_id;sensor_type;location;lat;lon;timestamp;temperature;humidity
1107;DHT22;540;49.448;8.612;2023-02-07T00:01:27;2.80;96.80
1107;DHT22;540;49.448;8.612;2023-02-07T00:03:55;2.70;96.70
1107;DHT22;540;49.448;8.612;2023-02-07T00:06:26;3.20;97.40
1107;DHT22;540;49.448;8.612;2023-02-07T00:08:54;3.30;96.90
1107;DHT22;540;49.448;8.612;2023-02-07T00:11:23;3.10;96.50
1107;DHT22;540;49.448;8.612;2023-02-07T00:13:52;3.40;96.50
1107;DHT22;540;49.448;8.612;2023-02-07T00:16:21;3.40;95.70
1107;DHT22;540;49.448;8.612;2023-02-07T00:18:51;3.60;95.20
1107;DHT22;540;49.448;8.612;2023-02-07T00:21:20;3.50;95.50
1107;DHT22;540;49.448;8.612;2023-02-07T00:23:50;3.30;95.90
1107;DHT22;540;49.448;8.612;2023-02-07T00:26:19;3.10;95.30
1107;DHT22;540;49.448;8.612;2023-02-07T00:28:50;3.10;94.80
1107;DHT22;540;49.448;8.612;2023-02-07T00:31:20;3.20;95.50
1107;DHT22;540;49.448;8.612;2023-02-07T00:33:50;3.00;95.90
1107;DHT22;540;49.448;8.612;2023-02-07T00:36:20;3.00;95.70
1107;DHT22;540;49.448;8.612;2023-02-07T00:38:48;3.20;96.00
1107;DHT22;540;49.448;8.612;2023-02-07T00:41:16;3.30;96.20
1107;DHT22;540;49.448;8.612;2023-02-07T00:43:46;3.00;95.60
1107;DHT22;540;49.448;8.612;2023-02-07T00:46:15;3.30;96.70
1107;DHT22;540;49.448;8.612;2023-02-07T00:48:44;3.00;97.80
1107;DHT22;540;49.448;8.612;2023-02-07T00:51:12;3.00;97.80
1107;DHT22;540;49.448;8.612;2023-02-07T00:53:41;2.80;97.80
1107;DHT22;540;49.448;8.612;2023-02-07T00:56:10;3.10;98.00
1107;DHT22;540;49.448;8.612;2023-02-07T00:58:38;3.00;98.00
1107;DHT22;540;49.448;8.612;2023-02-07T01:01:06;2.70;97.90
1107;DHT22;540;49.448;8.612;2023-02-07T01:03:35;2.70;99.00
1107;DHT22;540;49.448;8.612;2023-02-07T01:06:03;3.00;98.70
1107;DHT22;540;49.448;8.612;2023-02-07T01:08:31;3.00;97.30
1107;DHT22;540;49.448;8.612;2023-02-07T01:11:01;3.00;97.20
1107;DHT22;540;49.448;8.612;2023-02-07T01:13:29;2.90;97.10
1107;DHT22;540;49.448;8.612;2023-02-07T01:15:57;2.80;96.40
1107;DHT22;540;49.448;8.612;2023-02-07T01:18:25;3.10;95.80
1107;DHT22;540;49.448;8.612;2023-02-07T01:20:54;2.70;94.60
1107;DHT22;540;49.448;8.612;2023-02-07T01:23:22;2.90;94.70
1107;DHT22;540;49.448;8.612;2023-02-07T01:25:49;3.10;93.60
1107;DHT22;540;49.448;8.612;2023-02-07T01:28:17;3.00;93.90
1107;DHT22;540;49.448;8.612;2023-02-07T01:30:45;3.00;93.10
1107;DHT22;540;49.448;8.612;2023-02-07T01:33:13;2.80;90.30
1107;DHT22;540;49.448;8.612;2023-02-07T01:35:41;2.80;88.10
1107;DHT22;540;49.448;8.612;2023-02-07T01:38:14;3.20;89.50
1107;DHT22;540;49.448;8.612;2023-02-07T01:40:42;2.90;90.00
1107;DHT22;540;49.448;8.612;2023-02-07T01:43:15;2.80;89.90
1107;DHT22;540;49.448;8.612;2023-02-07T01:45:44;2.80;88.00
1107;DHT22;540;49.448;8.612;2023-02-07T01:48:15;3.00;81.50
1107;DHT22;540;49.448;8.612;2023-02-07T01:50:48;2.80;77.70
1107;DHT22;540;49.448;8.612;2023-02-07T01:53:19;3.10;76.30
1107;DHT22;540;49.448;8.612;2023-02-07T01:55:49;3.00;78.30
1107;DHT22;540;49.448;8.612;2023-02-07T01:58:18;2.90;80.60
1107;DHT22;540;49.448;8.612;2023-02-07T02:00:47;2.70;79.70
1107;DHT22;540;49.448;8.612;2023-02-07T02:03:15;2.70;79.60
1107;DHT22;540;49.448;8.612;2023-02-07T02:05:43;2.60;80.10
1107;DHT22;540;49.448;8.612;2023-02-07T02:08:12;2.90;79.90
1107;DHT22;540;49.448;8.612;2023-02-07T02:11:02;2.50;79.60
1107;DHT22;540;49.448;8.612;2023-02-07T02:13:39;2.70;78.10
1107;DHT22;540;49.448;8.612;2023-02-07T02:16:13;2.90;79.10
1107;DHT22;540;49.448;8.612;2023-02-07T02:19:03;2.70;79.00
1107;DHT22;540;49.448;8.612;2023-02-07T02:25:07;2.70;78.80
1107;DHT22;540;49.448;8.612;2023-02-07T02:27:54;2.30;77.70
1107;DHT22;540;49.448;8.612;2023-02-07T02:30:45;2.30;79.20
1107;DHT22;540;49.448;8.612;2023-02-07T02:33:27;2.20;80.80
1107;DHT22;540;49.448;8.612;2023-02-07T02:36:07;2.10;81.60
1107;DHT22;540;49.448;8.612;2023-02-07T02:38:41;1.90;81.40
1107;DHT22;540;49.448;8.612;2023-02-07T02:41:12;2.10;83.30
1107;DHT22;540;49.448;8.612;2023-02-07T02:43:43;2.30;84.40
1107;DHT22;540;49.448;8.612;2023-02-07T02:46:15;2.30;85.70
1107;DHT22;540;49.448;8.612;2023-02-07T02:48:45;2.20;86.00
1107;DHT22;540;49.448;8.612;2023-02-07T02:51:13;1.80;84.60
1107;DHT22;540;49.448;8.612;2023-02-07T02:53:50;2.00;83.60
1107;DHT22;540;49.448;8.612;2023-02-07T02:56:42;1.70;84.40
1107;DHT22;540;49.448;8.612;2023-02-07T02:59:34;2.00;84.20
1107;DHT22;540;49.448;8.612;2023-02-07T03:02:19;2.10;84.90
1107;DHT22;540;49.448;8.612;2023-02-07T03:05:00;1.80;85.20
1107;DHT22;540;49.448;8.612;2023-02-07T03:07:43;1.80;85.70
1107;DHT22;540;49.448;8.612;2023-02-07T03:10:22;1.60;85.00
1107;DHT22;540;49.448;8.612;2023-02-07T03:12:56;1.60;85.20
1107;DHT22;540;49.448;8.612;2023-02-07T03:15:32;1.70;86.00
1107;DHT22;540;49.448;8.612;2023-02-07T03:18:05;1.60;86.80
1107;DHT22;540;49.448;8.612;2023-02-07T03:20:39;1.60;87.10
1107;DHT22;540;49.448;8.612;2023-02-07T03:23:11;1.70;88.70
1107;DHT22;540;49.448;8.612;2023-02-07T03:25:41;1.40;88.90
1107;DHT22;540;49.448;8.612;2023-02-07T03:28:12;1.30;88.60
1107;DHT22;540;49.448;8.612;2023-02-07T03:30:41;1.30;88.60
1107;DHT22;540;49.448;8.612;2023-02-07T03:33:12;1.40;90.10
1107;DHT22;540;49.448;8.612;2023-02-07T03:35:47;1.40;90.20
1107;DHT22;540;49.448;8.612;2023-02-07T03:38:16;1.60;90.30
1107;DHT22;540;49.448;8.612;2023-02-07T03:40:45;1.30;90.50
1107;DHT22;540;49.448;8.612;2023-02-07T03:43:15;1.50;90.50
1107;DHT22;540;49.448;8.612;2023-02-07T03:45:44;1.50;90.10
1107;DHT22;540;49.448;8.612;2023-02-07T03:48:12;1.50;88.10
1107;DHT22;540;49.448;8.612;2023-02-07T03:50:40;1.30;87.90
1107;DHT22;540;49.448;8.612;2023-02-07T03:53:09;1.40;89.10
1107;DHT22;540;49.448;8.612;2023-02-07T03:55:37;1.50;89.60
1107;DHT22;540;49.448;8.612;2023-02-07T03:58:05;1.60;90.60
1107;DHT22;540;49.448;8.612;2023-02-07T04:00:34;1.50;91.20
1107;DHT22;540;49.448;8.612;2023-02-07T04:03:03;1.20;91.50
1107;DHT22;540;49.448;8.612;2023-02-07T04:05:30;1.20;91.30
1107;DHT22;540;49.448;8.612;2023-02-07T04:07:58;1.50;90.60
1107;DHT22;540;49.448;8.612;2023-02-07T04:10:28;1.40;89.20
1107;DHT22;540;49.448;8.612;2023-02-07T04:12:55;1.50;88.10
1107;DHT22;540;49.448;8.612;2023-02-07T04:15:23;1.50;86.00
1107;DHT22;540;49.448;8.612;2023-02-07T04:17:51;1.70;85.60
1107;DHT22;540;49.448;8.612;2023-02-07T04:20:19;1.40;84.70
1107;DHT22;540;49.448;8.612;2023-02-07T04:22:47;1.60;84.80
1107;DHT22;540;49.448;8.612;2023-02-07T04:25:14;1.60;84.10
1107;DHT22;540;49.448;8.612;2023-02-07T04:27:44;1.40;83.70
1107;DHT22;540;49.448;8.612;2023-02-07T04:30:12;1.60;83.30
1107;DHT22;540;49.448;8.612;2023-02-07T04:32:39;1.50;82.90
1107;DHT22;540;49.448;8.612;2023-02-07T04:35:07;1.40;83.70
1107;DHT22;540;49.448;8.612;2023-02-07T04:37:35;1.60;85.90
1107;DHT22;540;49.448;8.612;2023-02-07T04:40:03;1.40;85.40
1107;DHT22;540;49.448;8.612;2023-02-07T04:42:31;1.60;84.20
1107;DHT22;540;49.448;8.612;2023-02-07T04:45:00;1.50;82.50
1107;DHT22;540;49.448;8.612;2023-02-07T04:47:28;1.50;83.50
1107;DHT22;540;49.448;8.612;2023-02-07T04:49:56;1.70;81.90
1107;DHT22;540;49.448;8.612;2023-02-07T04:52:24;1.50;81.80
1107;DHT22;540;49.448;8.612;2023-02-07T04:54:52;1.50;82.50
1107;DHT22;540;49.448;8.612;2023-02-07T04:57:20;1.70;82.40
1107;DHT22;540;49.448;8.612;2023-02-07T04:59:47;1.50;82.60
1107;DHT22;540;49.448;8.612;2023-02-07T05:02:17;1.50;82.20
1107;DHT22;540;49.448;8.612;2023-02-07T05:04:44;1.40;82.00
1107;DHT22;540;49.448;8.612;2023-02-07T05:07:12;1.30;82.80
1107;DHT22;540;49.448;8.612;2023-02-07T05:09:40;1.50;82.00
1107;DHT22;540;49.448;8.612;2023-02-07T05:12:08;1.50;83.40
1107;DHT22;540;49.448;8.612;2023-02-07T05:14:36;1.20;82.60
1107;DHT22;540;49.448;8.612;2023-02-07T05:17:04;1.40;83.90
1107;DHT22;540;49.448;8.612;2023-02-07T05:19:33;1.30;82.70
1107;DHT22;540;49.448;8.612;2023-02-07T05:22:01;1.30;82.40
1107;DHT22;540;49.448;8.612;2023-02-07T05:24:28;1.20;82.30
1107;DHT22;540;49.448;8.612;2023-02-07T05:26:56;1.30;82.20
1107;DHT22;540;49.448;8.612;2023-02-07T05:29:24;1.20;82.40
1107;DHT22;540;49.448;8.612;2023-02-07T05:31:52;1.20;82.60
1107;DHT22;540;49.448;8.612;2023-02-07T05:34:39;1.20;82.60
1107;DHT22;540;49.448;8.612;2023-02-07T05:37:07;1.20;83.20
1107;DHT22;540;49.448;8.612;2023-02-07T05:39:34;1.20;83.50
1107;DHT22;540;49.448;8.612;2023-02-07T05:42:02;1.20;82.40
1107;DHT22;540;49.448;8.612;2023-02-07T05:44:30;1.40;82.80
1107;DHT22;540;49.448;8.612;2023-02-07T05:46:58;1.20;82.20
1107;DHT22;540;49.448;8.612;2023-02-07T05:49:26;1.30;81.60
1107;DHT22;540;49.448;8.612;2023-02-07T05:51:55;1.30;81.90
1107;DHT22;540;49.448;8.612;2023-02-07T05:54:23;1.30;81.60
1107;DHT22;540;49.448;8.612;2023-02-07T05:56:50;1.40;82.80
1107;DHT22;540;49.448;8.612;2023-02-07T05:59:18;1.20;81.20
1107;DHT22;540;49.448;8.612;2023-02-07T06:01:46;1.40;81.50
1107;DHT22;540;49.448;8.612;2023-02-07T06:04:14;1.10;82.10
1107;DHT22;540;49.448;8.612;2023-02-07T06:06:42;1.30;83.50
1107;DHT22;540;49.448;8.612;2023-02-07T06:09:11;1.10;85.00
1107;DHT22;540;49.448;8.612;2023-02-07T06:11:39;1.10;88.10
1107;DHT22;540;49.448;8.612;2023-02-07T06:14:07;1.10;87.10
1107;DHT22;540;49.448;8.612;2023-02-07T06:16:34;1.00;87.90
1107;DHT22;540;49.448;8.612;2023-02-07T06:19:02;0.90;88.60
1107;DHT22;540;49.448;8.612;2023-02-07T06:21:30;1.00;90.00
1107;DHT22;540;49.448;8.612;2023-02-07T06:24:13;0.90;88.60
1107;DHT22;540;49.448;8.612;2023-02-07T06:26:41;0.90;86.80
1107;DHT22;540;49.448;8.612;2023-02-07T06:29:09;0.90;87.50
1107;DHT22;540;49.448;8.612;2023-02-07T06:31:37;0.80;86.80
1107;DHT22;540;49.448;8.612;2023-02-07T06:34:05;0.80;87.20
1107;DHT22;540;49.448;8.612;2023-02-07T06:36:33;1.00;86.90
1107;DHT22;540;49.448;8.612;2023-02-07T06:39:01;0.70;87.10
1107;DHT22;540;49.448;8.612;2023-02-07T06:41:30;0.80;89.20
1107;DHT22;540;49.448;8.612;2023-02-07T06:43:58;0.80;87.60
1107;DHT22;540;49.448;8.612;2023-02-07T06:46:25;0.80;89.10
1107;DHT22;540;49.448;8.612;2023-02-07T06:48:53;0.70;89.10
1107;DHT22;540;49.448;8.612;2023-02-07T06:51:21;0.70;88.90
1107;DHT22;540;49.448;8.612;2023-02-07T06:53:49;0.70;88.40
1107;DHT22;540;49.448;8.612;2023-02-07T06:56:17;0.80;87.80
1107;DHT22;540;49.448;8.612;2023-02-07T06:58:46;0.70;89.30
1107;DHT22;540;49.448;8.612;2023-02-07T07:01:14;0.70;88.40
1107;DHT22;540;49.448;8.612;2023-02-07T07:03:45;0.70;87.50
1107;DHT22;540;49.448;8.612;2023-02-07T07:06:13;0.80;88.20
1107;DHT22;540;49.448;8.612;2023-02-07T07:08:41;0.80;88.40
1107;DHT22;540;49.448;8.612;2023-02-07T07:11:09;0.60;89.00
1107;DHT22;540;49.448;8.612;2023-02-07T07:13:37;0.50;89.30
1107;DHT22;540;49.448;8.612;2023-02-07T07:16:06;0.70;89.50
1107;DHT22;540;49.448;8.612;2023-02-07T07:18:34;0.70;90.10
1107;DHT22;540;49.448;8.612;2023-02-07T07:21:04;0.70;90.60
1107;DHT22;540;49.448;8.612;2023-02-07T07:23:32;0.70;91.20
1107;DHT22;540;49.448;8.612;2023-02-07T07:26:00;0.70;91.10
1107;DHT22;540;49.448;8.612;2023-02-07T07:28:28;0.60;91.60
1107;DHT22;540;49.448;8.612;2023-02-07T07:31:01;0.70;91.80
1107;DHT22;540;49.448;8.612;2023-02-07T07:33:31;0.70;91.30
1107;DHT22;540;49.448;8.612;2023-02-07T07:36:00;0.50;90.60
1107;DHT22;540;49.448;8.612;2023-02-07T07:38:28;0.70;90.40
1107;DHT22;540;49.448;8.612;2023-02-07T07:40:57;0.80;90.10
1107;DHT22;540;49.448;8.612;2023-02-07T07:43:25;0.90;89.50
1107;DHT22;540;49.448;8.612;2023-02-07T07:45:54;0.70;88.00
1107;DHT22;540;49.448;8.612;2023-02-07T07:48:23;1.00;87.20
1107;DHT22;540;49.448;8.612;2023-02-07T07:50:52;1.40;87.00
1107;DHT22;540;49.448;8.612;2023-02-07T07:53:20;1.50;86.30
1107;DHT22;540;49.448;8.612;2023-02-07T07:55:48;2.10;84.50
1107;DHT22;540;49.448;8.612;2023-02-07T07:58:17;2.70;80.10
1107;DHT22;540;49.448;8.612;2023-02-07T08:00:45;3.00;76.60
1107;DHT22;540;49.448;8.612;2023-02-07T08:03:13;3.30;73.80
1107;DHT22;540;49.448;8.612;2023-02-07T08:05:42;3.70;73.40
1107;DHT22;540;49.448;8.612;2023-02-07T08:08:12;4.80;70.40
1107;DHT22;540;49.448;8.612;2023-02-07T08:10:41;6.00;65.20
1107;DHT22;540;49.448;8.612;2023-02-07T08:13:09;6.00;62.60
1107;DHT22;540;49.448;8.612;2023-02-07T08:15:37;6.70;60.40
1107;DHT22;540;49.448;8.612;2023-02-07T08:18:05;7.40;57.70
1107;DHT22;540;49.448;8.612;2023-02-07T08:20:33;7.70;56.00
1107;DHT22;540;49.448;8.612;2023-02-07T08:23:01;7.90;54.20
1107;DHT22;540;49.448;8.612;2023-02-07T08:25:31;8.40;52.60
1107;DHT22;540;49.448;8.612;2023-02-07T08:27:59;8.90;51.50
1107;DHT22;540;49.448;8.612;2023-02-07T08:30:30;9.50;50.00
1107;DHT22;540;49.448;8.612;2023-02-07T08:32:57;9.60;48.80
1107;DHT22;540;49.448;8.612;2023-02-07T08:35:25;10.00;47.20
1107;DHT22;540;49.448;8.612;2023-02-07T08:37:54;10.30;45.60
1107;DHT22;540;49.448;8.612;2023-02-07T08:40:24;10.70;44.70
1107;DHT22;540;49.448;8.612;2023-02-07T08:42:53;11.00;43.50
1107;DHT22;540;49.448;8.612;2023-02-07T08:45:21;11.00;42.30
1107;DHT22;540;49.448;8.612;2023-02-07T08:47:50;11.60;41.30
1107;DHT22;540;49.448;8.612;2023-02-07T08:50:18;11.70;40.10
1107;DHT22;540;49.448;8.612;2023-02-07T08:52:46;11.70;39.60
1107;DHT22;540;49.448;8.612;2023-02-07T08:55:14;11.80;39.30
1107;DHT22;540;49.448;8.612;2023-02-07T08:57:42;11.40;39.10
1107;DHT22;540;49.448;8.612;2023-02-07T09:00:13;11.40;39.00
1107;DHT22;540;49.448;8.612;2023-02-07T09:02:43;11.70;38.30
1107;DHT22;540;49.448;8.612;2023-02-07T09:05:13;11.80;38.30
1107;DHT22;540;49.448;8.612;2023-02-07T09:07:43;11.30;38.00
1107;DHT22;540;49.448;8.612;2023-02-07T09:10:13;11.90;38.60
1107;DHT22;540;49.448;8.612;2023-02-07T09:12:43;12.40;37.70
1107;DHT22;540;49.448;8.612;2023-02-07T09:15:14;12.70;37.80
1107;DHT22;540;49.448;8.612;2023-02-07T09:17:44;12.60;36.70
1107;DHT22;540;49.448;8.612;2023-02-07T09:20:14;12.90;36.10
1107;DHT22;540;49.448;8.612;2023-02-07T09:22:44;12.70;35.60
1107;DHT22;540;49.448;8.612;2023-02-07T09:25:31;13.30;35.50
1107;DHT22;540;49.448;8.612;2023-02-07T09:28:00;13.20;34.30
1107;DHT22;540;49.448;8.612;2023-02-07T09:30:32;13.00;32.60
1107;DHT22;540;49.448;8.612;2023-02-07T09:33:02;13.20;32.00
1107;DHT22;540;49.448;8.612;2023-02-07T09:35:36;13.00;31.80
1107;DHT22;540;49.448;8.612;2023-02-07T09:38:06;13.40;31.50
1107;DHT22;540;49.448;8.612;2023-02-07T09:40:38;13.20;31.10
1107;DHT22;540;49.448;8.612;2023-02-07T09:43:16;13.60;30.90
1107;DHT22;540;49.448;8.612;2023-02-07T09:45:53;12.90;31.10
1107;DHT22;540;49.448;8.612;2023-02-07T09:48:28;13.20;31.70
1107;DHT22;540;49.448;8.612;2023-02-07T09:51:01;13.00;31.80
1107;DHT22;540;49.448;8.612;2023-02-07T09:53:41;13.30;32.30
1107;DHT22;540;49.448;8.612;2023-02-07T09:56:13;13.10;32.40
1107;DHT22;540;49.448;8.612;2023-02-07T09:58:45;13.10;32.30
1107;DHT22;540;49.448;8.612;2023-02-07T10:01:20;13.10;32.10
1107;DHT22;540;49.448;8.612;2023-02-07T10:03:54;12.90;31.60
1107;DHT22;540;49.448;8.612;2023-02-07T10:06:27;12.60;31.60
1107;DHT22;540;49.448;8.612;2023-02-07T10:08:57;12.70;32.70
1107;DHT22;540;49.448;8.612;2023-02-07T10:11:34;12.40;31.50
1107;DHT22;540;49.448;8.612;2023-02-07T10:14:15;12.00;31.00
1107;DHT22;540;49.448;8.612;2023-02-07T10:16:55;12.30;32.50
1107;DHT22;540;49.448;8.612;2023-02-07T10:19:35;11.80;31.20
1107;DHT22;540;49.448;8.612;2023-02-07T10:22:14;12.40;31.60
1107;DHT22;540;49.448;8.612;2023-02-07T10:25:16;12.10;31.20
1107;DHT22;540;49.448;8.612;2023-02-07T10:27:54;12.10;31.60
1107;DHT22;540;49.448;8.612;2023-02-07T10:30:27;11.30;31.10
1107;DHT22;540;49.448;8.612;2023-02-07T10:33:00;10.90;31.70
1107;DHT22;540;49.448;8.612;2023-02-07T10:35:32;10.70;32.90
1107;DHT22;540;49.448;8.612;2023-02-07T10:38:02;10.00;34.30
1107;DHT22;540;49.448;8.612;2023-02-07T10:40:36;9.30;36.10
1107;DHT22;540;49.448;8.612;2023-02-07T10:43:11;9.00;36.20
1107;DHT22;540;49.448;8.612;2023-02-07T10:45:43;8.70;36.70
1107;DHT22;540;49.448;8.612;2023-02-07T10:48:18;8.40;38.10
1107;DHT22;540;49.448;8.612;2023-02-07T10:50:46;8.20;38.10
1107;DHT22;540;49.448;8.612;2023-02-07T10:53:41;8.30;38.60
1107;DHT22;540;49.448;8.612;2023-02-07T10:56:22;8.20;38.90
1107;DHT22;540;49.448;8.612;2023-02-07T10:58:50;7.90;38.20
1107;DHT22;540;49.448;8.612;2023-02-07T11:01:21;8.00;38.10
1107;DHT22;540;49.448;8.612;2023-02-07T11:03:52;8.20;38.80
1107;DHT22;540;49.448;8.612;2023-02-07T11:06:25;8.50;39.00
1107;DHT22;540;49.448;8.612;2023-02-07T11:09:19;8.00;39.10
1107;DHT22;540;49.448;8.612;2023-02-07T11:11:48;8.20;38.90
1107;DHT22;540;49.448;8.612;2023-02-07T11:14:18;8.30;38.60
1107;DHT22;540;49.448;8.612;2023-02-07T11:16:52;8.60;38.70
1107;DHT22;540;49.448;8.612;2023-02-07T11:19:24;8.70;38.60
1107;DHT22;540;49.448;8.612;2023-02-07T11:22:08;9.50;37.80
1107;DHT22;540;49.448;8.612;2023-02-07T11:24:37;10.60;36.30
1107;DHT22;540;49.448;8.612;2023-02-07T11:27:07;10.90;34.60
1107;DHT22;540;49.448;8.612;2023-02-07T11:29:45;11.60;34.10
1107;DHT22;540;49.448;8.612;2023-02-07T11:32:15;11.10;32.40
1107;DHT22;540;49.448;8.612;2023-02-07T11:34:46;12.00;32.10
1107;DHT22;540;49.448;8.612;2023-02-07T11:37:25;12.90;31.90
1107;DHT22;540;49.448;8.612;2023-02-07T11:39:55;13.30;30.50
1107;DHT22;540;49.448;8.612;2023-02-07T11:42:26;13.30;29.50
1107;DHT22;540;49.448;8.612;2023-02-07T11:45:02;14.10;28.80
1107;DHT22;540;49.448;8.612;2023-02-07T11:47:31;14.30;28.20
1107;DHT22;540;49.448;8.612;2023-02-07T11:50:05;14.20;28.20
1107;DHT22;540;49.448;8.612;2023-02-07T11:52:36;14.40;28.20
1107;DHT22;540;49.448;8.612;2023-02-07T11:55:08;13.80;28.00
1107;DHT22;540;49.448;8.612;2023-02-07T11:57:39;13.90;27.70
1107;DHT22;540;49.448;8.612;2023-02-07T12:00:17;14.00;28.00
1107;DHT22;540;49.448;8.612;2023-02-07T12:02:49;13.20;27.30
1107;DHT22;540;49.448;8.612;2023-02-07T12:05:21;13.30;28.10
1107;DHT22;540;49.448;8.612;2023-02-07T12:07:52;14.50;28.30
1107;DHT22;540;49.448;8.612;2023-02-07T12:10:26;14.50;27.80
1107;DHT22;540;49.448;8.612;2023-02-07T12:12:58;14.30;27.80
1107;DHT22;540;49.448;8.612;2023-02-07T12:15:31;14.10;28.00
1107;DHT22;540;49.448;8.612;2023-02-07T12:18:06;14.60;28.50
1107;DHT22;540;49.448;8.612;2023-02-07T12:20:41;14.80;28.10
1107;DHT22;540;49.448;8.612;2023-02-07T12:23:17;15.10;27.60
1107;DHT22;540;49.448;8.612;2023-02-07T12:26:13;15.10;27.40
1107;DHT22;540;49.448;8.612;2023-02-07T12:28:47;15.40;27.60
1107;DHT22;540;49.448;8.612;2023-02-07T12:31:24;15.20;27.20
1107;DHT22;540;49.448;8.612;2023-02-07T12:33:57;15.50;27.00
1107;DHT22;540;49.448;8.612;2023-02-07T12:36:31;15.30;26.60
1107;DHT22;540;49.448;8.612;2023-02-07T12:39:02;15.30;26.10
1107;DHT22;540;49.448;8.612;2023-02-07T12:41:36;15.40;26.20
1107;DHT22;540;49.448;8.612;2023-02-07T12:44:11;15.50;26.50
1107;DHT22;540;49.448;8.612;2023-02-07T12:46:52;15.20;26.40
1107;DHT22;540;49.448;8.612;2023-02-07T12:49:35;14.80;26.50
1107;DHT22;540;49.448;8.612;2023-02-07T12:52:19;15.30;26.80
1107;DHT22;540;49.448;8.612;2023-02-07T12:55:00;15.20;26.40
1107;DHT22;540;49.448;8.612;2023-02-07T12:57:38;15.30;26.20
1107;DHT22;540;49.448;8.612;2023-02-07T13:00:13;15.20;26.30
1107;DHT22;540;49.448;8.612;2023-02-07T13:02:56;15.20;26.30
1107;DHT22;540;49.448;8.612;2023-02-07T13:05:43;15.30;26.00
1107;DHT22;540;49.448;8.612;2023-02-07T13:08:22;15.40;26.70
1107;DHT22;540;49.448;8.612;2023-02-07T13:11:00;14.90;26.70
1107;DHT22;540;49.448;8.612;2023-02-07T13:13:34;15.00;26.70
1107;DHT22;540;49.448;8.612;2023-02-07T13:16:08;15.20;26.50
1107;DHT22;540;49.448;8.612;2023-02-07T13:18:43;15.50;26.20
1107;DHT22;540;49.448;8.612;2023-02-07T13:21:18;15.60;25.90
1107;DHT22;540;49.448;8.612;2023-02-07T13:23:51;14.60;25.50
1107;DHT22;540;49.448;8.612;2023-02-07T13:26:23;14.90;25.70
1107;DHT22;540;49.448;8.612;2023-02-07T13:28:55;14.90;26.10
1107;DHT22;540;49.448;8.612;2023-02-07T13:31:35;14.80;26.20
1107;DHT22;540;49.448;8.612;2023-02-07T13:34:04;14.70;26.30
1107;DHT22;540;49.448;8.612;2023-02-07T13:36:41;14.30;27.00
1107;DHT22;540;49.448;8.612;2023-02-07T13:39:19;14.60;27.20
1107;DHT22;540;49.448;8.612;2023-02-07T13:41:57;13.60;26.60
1107;DHT22;540;49.448;8.612;2023-02-07T13:44:30;14.10;27.00
1107;DHT22;540;49.448;8.612;2023-02-07T13:47:11;13.90;27.00
1107;DHT22;540;49.448;8.612;2023-02-07T13:49:48;14.40;27.30
1107;DHT22;540;49.448;8.612;2023-02-07T13:52:23;13.80;27.40
1107;DHT22;540;49.448;8.612;2023-02-07T13:55:04;14.00;27.90
1107;DHT22;540;49.448;8.612;2023-02-07T13:57:41;13.90;27.70
1107;DHT22;540;49.448;8.612;2023-02-07T14:00:29;13.20;27.30
1107;DHT22;540;49.448;8.612;2023-02-07T14:02:59;13.80;27.50
1107;DHT22;540;49.448;8.612;2023-02-07T14:05:29;13.60;27.60
1107;DHT22;540;49.448;8.612;2023-02-07T14:08:00;13.80;28.00
1107;DHT22;540;49.448;8.612;2023-02-07T14:10:44;13.90;27.30
1107;DHT22;540;49.448;8.612;2023-02-07T14:13:20;13.40;27.50
1107;DHT22;540;49.448;8.612;2023-02-07T14:15:55;13.00;27.80
1107;DHT22;540;49.448;8.612;2023-02-07T14:18:43;13.10;28.30
1107;DHT22;540;49.448;8.612;2023-02-07T14:21:26;13.00;29.20
1107;DHT22;540;49.448;8.612;2023-02-07T14:24:03;13.10;29.00
1107;DHT22;540;49.448;8.612;2023-02-07T14:26:57;12.70;28.80
1107;DHT22;540;49.448;8.612;2023-02-07T14:32:39;12.40;29.60
1107;DHT22;540;49.448;8.612;2023-02-07T14:35:32;11.50;29.60
1107;DHT22;540;49.448;8.612;2023-02-07T14:38:08;10.90;30.70
1107;DHT22;540;49.448;8.612;2023-02-07T14:40:51;10.50;31.60
1107;DHT22;540;49.448;8.612;2023-02-07T14:43:43;10.00;32.00
1107;DHT22;540;49.448;8.612;2023-02-07T14:46:26;9.30;32.80
1107;DHT22;540;49.448;8.612;2023-02-07T14:49:00;9.50;33.60
1107;DHT22;540;49.448;8.612;2023-02-07T14:51:40;9.10;34.70
1107;DHT22;540;49.448;8.612;2023-02-07T14:54:15;8.70;34.30
1107;DHT22;540;49.448;8.612;2023-02-07T14:56:51;8.70;34.70
1107;DHT22;540;49.448;8.612;2023-02-07T14:59:26;8.60;35.50
1107;DHT22;540;49.448;8.612;2023-02-07T15:01:55;8.80;35.60
1107;DHT22;540;49.448;8.612;2023-02-07T15:04:23;8.30;35.50
1107;DHT22;540;49.448;8.612;2023-02-07T15:06:51;8.40;36.20
1107;DHT22;540;49.448;8.612;2023-02-07T15:09:23;7.60;36.70
1107;DHT22;540;49.448;8.612;2023-02-07T15:11:52;8.10;37.20
1107;DHT22;540;49.448;8.612;2023-02-07T15:14:34;7.90;36.50
1107;DHT22;540;49.448;8.612;2023-02-07T15:17:02;8.00;36.90
1107;DHT22;540;49.448;8.612;2023-02-07T15:19:34;8.20;37.20
1107;DHT22;540;49.448;8.612;2023-02-07T15:22:03;8.10;36.90
1107;DHT22;540;49.448;8.612;2023-02-07T15:24:49;7.80;37.00
1107;DHT22;540;49.448;8.612;2023-02-07T15:27:20;7.80;38.40
1107;DHT22;540;49.448;8.612;2023-02-07T15:29:55;7.70;38.90
1107;DHT22;540;49.448;8.612;2023-02-07T15:32:26;7.50;39.20
1107;DHT22;540;49.448;8.612;2023-02-07T15:34:55;7.60;39.30
1107;DHT22;540;49.448;8.612;2023-02-07T15:37:24;7.40;39.70
1107;DHT22;540;49.448;8.612;2023-02-07T15:39:54;7.60;39.00
1107;DHT22;540;49.448;8.612;2023-02-07T15:42:23;7.20;38.90
1107;DHT22;540;49.448;8.612;2023-02-07T15:44:53;7.30;38.30
1107;DHT22;540;49.448;8.612;2023-02-07T15:47:33;6.90;37.10
1107;DHT22;540;49.448;8.612;2023-02-07T15:50:05;6.90;37.20
1107;DHT22;540;49.448;8.612;2023-02-07T15:52:35;6.80;37.50
1107;DHT22;540;49.448;8.612;2023-02-07T15:55:14;7.10;37.70
1107;DHT22;540;49.448;8.612;2023-02-07T15:57:43;6.60;37.10
1107;DHT22;540;49.448;8.612;2023-02-07T16:00:16;6.60;37.00
1107;DHT22;540;49.448;8.612;2023-02-07T16:02:54;6.20;37.30
1107;DHT22;540;49.448;8.612;2023-02-07T16:05:25;6.40;36.80
1107;DHT22;540;49.448;8.612;2023-02-07T16:07:53;6.60;37.00
1107;DHT22;540;49.448;8.612;2023-02-07T16:10:34;6.50;37.30
1107;DHT22;540;49.448;8.612;2023-02-07T16:13:10;6.40;38.10
1107;DHT22;540;49.448;8.612;2023-02-07T16:15:52;6.60;38.30
1107;DHT22;540;49.448;8.612;2023-02-07T16:18:34;6.50;38.10
1107;DHT22;540;49.448;8.612;2023-02-07T16:21:03;6.30;38.60
1107;DHT22;540;49.448;8.612;2023-02-07T16:23:31;6.30;39.40
1107;DHT22;540;49.448;8.612;2023-02-07T16:26:00;6.20;38.40
1107;DHT22;540;49.448;8.612;2023-02-07T16:28:30;5.90;38.90
1107;DHT22;540;49.448;8.612;2023-02-07T16:31:00;6.00;42.00
1107;DHT22;540;49.448;8.612;2023-02-07T16:33:28;5.90;43.70
1107;DHT22;540;49.448;8.612;2023-02-07T16:35:56;5.90;44.90
1107;DHT22;540;49.448;8.612;2023-02-07T16:38:24;5.80;45.80
1107;DHT22;540;49.448;8.612;2023-02-07T16:40:51;5.70;46.20
1107;DHT22;540;49.448;8.612;2023-02-07T16:43:34;5.60;47.00
1107;DHT22;540;49.448;8.612;2023-02-07T16:46:05;5.60;46.80
1107;DHT22;540;49.448;8.612;2023-02-07T16:48:33;5.30;46.00
1107;DHT22;540;49.448;8.612;2023-02-07T16:51:00;5.40;45.70
1107;DHT22;540;49.448;8.612;2023-02-07T16:53:28;5.30;45.80
1107;DHT22;540;49.448;8.612;2023-02-07T16:55:57;4.90;45.40
1107;DHT22;540;49.448;8.612;2023-02-07T16:58:27;5.10;44.80
1107;DHT22;540;49.448;8.612;2023-02-07T17:00:56;5.20;44.90
1107;DHT22;540;49.448;8.612;2023-02-07T17:03:25;4.90;44.00
1107;DHT22;540;49.448;8.612;2023-02-07T17:05:53;5.10;44.80
1107;DHT22;540;49.448;8.612;2023-02-07T17:08:22;4.80;45.00